createdAt,value
2022-08-06T00:00:07.518Z,13.56
2022-08-06T00:02:59.855Z,13.52
2022-08-06T00:06:02.682Z,13.49
2022-08-06T00:09:05.370Z,13.43
2022-08-06T00:12:10.829Z,13.32
2022-08-06T00:15:14.785Z,13.42
2022-08-06T00:18:18.443Z,13.32
2022-08-06T00:21:42.307Z,13.36
2022-08-06T00:24:43.259Z,13.38
2022-08-06T00:27:51.379Z,13.30
2022-08-06T00:30:54.366Z,13.27
2022-08-06T00:34:05.077Z,13.32
2022-08-06T00:37:18.828Z,13.30
2022-08-06T00:40:24.376Z,13.20
2022-08-06T00:43:30.720Z,13.18
2022-08-06T00:46:45.038Z,13.20
2022-08-06T00:49:48.906Z,13.11
2022-08-06T00:52:52.257Z,13.20
2022-08-06T00:55:59.428Z,13.18
2022-08-06T00:59:05.039Z,13.06
2022-08-06T01:02:14.758Z,13.09
2022-08-06T01:05:54.759Z,13.18
2022-08-06T01:08:41.589Z,13.22
2022-08-06T01:11:44.222Z,13.18
2022-08-06T01:15:02.562Z,13.19
2022-08-06T01:18:24.606Z,13.25
2022-08-06T01:22:39.411Z,13.16
2022-08-06T01:25:46.174Z,13.05
2022-08-06T01:29:03.039Z,12.98
2022-08-06T01:32:10.261Z,13.09
2022-08-06T01:35:46.796Z,13.12
2022-08-06T01:38:57.411Z,13.14
2022-08-06T01:42:06.130Z,13.15
2022-08-06T01:45:13.547Z,13.05
2022-08-06T01:48:21.227Z,13.14
2022-08-06T01:52:13.450Z,13.23
2022-08-06T01:54:59.580Z,13.18
2022-08-06T01:58:19.203Z,13.22
2022-08-06T02:01:25.280Z,13.26
2022-08-06T02:04:32.128Z,13.19
2022-08-06T02:08:37.567Z,13.25
2022-08-06T02:11:23.922Z,13.27
2022-08-06T02:14:32.422Z,13.16
2022-08-06T02:18:04.544Z,13.16
2022-08-06T02:21:13.842Z,13.19
2022-08-06T02:24:26.277Z,13.12
2022-08-06T02:27:43.063Z,13.18
2022-08-06T02:30:50.243Z,13.11
2022-08-06T02:34:02.293Z,13.08
2022-08-06T02:37:23.029Z,13.09
2022-08-06T02:40:51.761Z,13.18
2022-08-06T02:44:03.068Z,13.20
2022-08-06T02:47:18.548Z,13.09
2022-08-06T02:50:29.184Z,13.09
2022-08-06T02:54:02.619Z,13.05
2022-08-06T02:57:05.118Z,12.89
2022-08-06T03:00:10.030Z,12.82
2022-08-06T03:03:21.562Z,12.84
2022-08-06T03:06:38.767Z,12.80
2022-08-06T03:09:49.478Z,12.77
2022-08-06T03:12:55.654Z,12.69
2022-08-06T03:16:01.460Z,12.69
2022-08-06T03:19:56.039Z,12.71
2022-08-06T03:22:35.827Z,12.77
2022-08-06T03:25:47.783Z,12.64
2022-08-06T03:28:51.061Z,12.62
2022-08-06T03:31:58.692Z,12.68
2022-08-06T03:35:41.978Z,12.65
2022-08-06T03:38:44.263Z,12.61
2022-08-06T03:42:07.191Z,12.71
2022-08-06T03:45:35.819Z,12.67
2022-08-06T03:48:41.414Z,12.65
2022-08-06T03:51:52.441Z,12.54
2022-08-06T03:55:04.854Z,12.58
2022-08-06T03:58:13.251Z,12.61
2022-08-06T04:01:35.296Z,12.54
2022-08-06T04:04:47.311Z,12.67
2022-08-06T04:07:56.776Z,12.77
2022-08-06T04:10:59.888Z,12.85
2022-08-06T04:14:07.354Z,12.80
2022-08-06T04:17:10.997Z,12.82
2022-08-06T04:20:17.408Z,12.92
2022-08-06T04:23:40.138Z,12.99
2022-08-06T04:26:45.868Z,12.94
2022-08-06T04:29:57.240Z,12.95
2022-08-06T04:33:04.311Z,13.14
2022-08-06T04:36:17.695Z,13.06
2022-08-06T04:39:38.435Z,13.08
2022-08-06T04:42:51.377Z,13.14
2022-08-06T04:46:14.259Z,13.19
2022-08-06T04:49:18.202Z,13.23
2022-08-06T04:52:46.748Z,13.22
2022-08-06T04:56:03.032Z,13.19
2022-08-06T04:59:07.553Z,13.19
2022-08-06T05:02:10.196Z,13.30
2022-08-06T05:05:15.759Z,13.39
2022-08-06T05:08:19.120Z,13.32
2022-08-06T05:11:29.513Z,13.32
2022-08-06T05:14:42.904Z,13.36
2022-08-06T05:17:56.039Z,13.38
2022-08-06T05:20:58.866Z,13.52
2022-08-06T05:24:03.977Z,13.60
2022-08-06T05:27:07.220Z,13.73
2022-08-06T05:30:09.923Z,13.83
2022-08-06T05:33:12.089Z,13.78
2022-08-06T05:36:20.119Z,13.86
2022-08-06T05:39:56.496Z,13.80
2022-08-06T05:42:57.631Z,13.76
2022-08-06T05:46:05.697Z,13.93
2022-08-06T05:49:57.190Z,14.61
2022-08-06T05:53:12.751Z,15.43
2022-08-06T05:56:39.409Z,15.85
2022-08-06T05:59:56.823Z,16.24
2022-08-06T06:03:05.205Z,16.60
2022-08-06T06:06:17.885Z,16.90
2022-08-06T06:09:21.339Z,17.19
2022-08-06T06:12:44.200Z,17.53
2022-08-06T06:16:04.190Z,17.84
2022-08-06T06:19:29.575Z,18.10
2022-08-06T06:22:58.551Z,18.36
2022-08-06T06:26:10.667Z,18.64
2022-08-06T06:30:05.213Z,18.81
2022-08-06T06:33:47.306Z,19.06
2022-08-06T06:37:25.763Z,19.35
2022-08-06T06:40:52.954Z,19.57
2022-08-06T06:44:17.355Z,19.61
2022-08-06T06:47:46.403Z,19.72
2022-08-06T06:50:58.741Z,20.23
2022-08-06T06:54:07.215Z,20.32
2022-08-06T06:57:17.815Z,20.17
2022-08-06T07:00:45.524Z,20.26
2022-08-06T07:03:44.759Z,20.40
2022-08-06T07:06:48.252Z,20.51
2022-08-06T07:10:01.889Z,20.81
2022-08-06T07:13:05.632Z,20.80
2022-08-06T07:16:35.740Z,21.24
2022-08-06T07:19:39.752Z,21.37
2022-08-06T07:24:04.470Z,21.39
2022-08-06T07:26:14.942Z,20.76
2022-08-06T07:29:48.584Z,21.31
2022-08-06T07:32:44.747Z,21.93
2022-08-06T07:35:51.271Z,22.18
2022-08-06T07:38:57.282Z,22.40
2022-08-06T07:42:11.487Z,21.50
2022-08-06T07:45:17.100Z,21.59
2022-08-06T07:48:24.208Z,22.07
2022-08-06T07:51:34.443Z,20.56
2022-08-06T07:54:38.650Z,21.11
2022-08-06T07:57:55.308Z,21.58
2022-08-06T08:00:58.949Z,21.89
2022-08-06T08:04:34.166Z,21.25
2022-08-06T08:07:53.830Z,21.75
2022-08-06T08:10:59.686Z,23.11
2022-08-06T08:14:06.037Z,22.83
2022-08-06T08:17:09.502Z,21.52
2022-08-06T08:20:16.402Z,20.85
2022-08-06T08:23:25.761Z,20.33
2022-08-06T08:27:02.138Z,19.69
2022-08-06T08:29:59.730Z,19.48
2022-08-06T08:33:02.133Z,21.11
2022-08-06T08:36:08.486Z,22.09
2022-08-06T08:39:15.808Z,22.96
2022-08-06T08:42:31.423Z,23.62
2022-08-06T08:45:36.088Z,23.33
2022-08-06T08:48:39.425Z,24.32
2022-08-06T08:51:45.143Z,23.81
2022-08-06T08:54:54.404Z,23.30
2022-08-06T08:58:39.738Z,22.29
2022-08-06T09:01:52.661Z,21.46
2022-08-06T09:04:45.551Z,23.02
2022-08-06T09:08:00.666Z,24.50
2022-08-06T09:11:06.930Z,23.71
2022-08-06T09:14:16.427Z,24.00
2022-08-06T09:18:11.582Z,22.54
2022-08-06T09:20:45.656Z,22.44
2022-08-06T09:23:58.081Z,21.55
2022-08-06T09:27:44.947Z,21.56
2022-08-06T09:30:30.894Z,23.15
2022-08-06T09:34:19.167Z,23.90
2022-08-06T09:36:59.341Z,24.76
2022-08-06T09:40:13.653Z,25.25
2022-08-06T09:44:01.998Z,25.53
2022-08-06T09:46:53.406Z,26.08
2022-08-06T09:50:00.314Z,24.81
2022-08-06T09:53:03.277Z,24.30
2022-08-06T09:56:17.115Z,23.80
2022-08-06T09:59:19.889Z,24.45
2022-08-06T10:02:23.510Z,24.61
2022-08-06T10:05:33.531Z,24.92
2022-08-06T10:09:11.902Z,26.82
2022-08-06T10:12:26.712Z,26.79
2022-08-06T10:15:57.672Z,26.04
2022-08-06T10:18:55.709Z,26.09
2022-08-06T10:22:09.304Z,27.06
2022-08-06T10:25:13.464Z,25.87
2022-08-06T10:28:16.137Z,25.80
2022-08-06T10:31:21.934Z,26.01
2022-08-06T10:34:31.007Z,26.88
2022-08-06T10:37:49.729Z,26.88
2022-08-06T10:40:57.141Z,26.39
2022-08-06T10:44:00.946Z,26.63
2022-08-06T10:47:09.329Z,26.71
2022-08-06T10:50:32.138Z,26.08
2022-08-06T10:54:02.328Z,26.55
2022-08-06T10:57:05.222Z,26.41
2022-08-06T11:00:10.403Z,26.42
2022-08-06T11:03:51.510Z,27.60
2022-08-06T11:08:08.904Z,27.20
2022-08-06T11:11:31.981Z,26.52
2022-08-06T11:14:44.951Z,27.74
2022-08-06T11:17:50.721Z,29.06
2022-08-06T11:20:53.811Z,28.92
2022-08-06T11:24:01.955Z,26.78
2022-08-06T11:27:11.654Z,24.68
2022-08-06T11:30:14.252Z,26.53
2022-08-06T11:33:20.478Z,28.05
2022-08-06T11:36:27.457Z,28.52
2022-08-06T11:39:34.651Z,29.30
2022-08-06T11:42:50.412Z,28.42
2022-08-06T11:46:31.781Z,25.69
2022-08-06T11:49:43.389Z,22.72
2022-08-06T11:52:47.493Z,23.93
2022-08-06T11:56:05.103Z,25.91
2022-08-06T11:59:14.775Z,26.04
2022-08-06T12:02:54.704Z,27.51
2022-08-06T12:06:00.437Z,26.24
2022-08-06T12:09:35.788Z,23.90
2022-08-06T12:12:50.153Z,23.55
2022-08-06T12:16:10.280Z,25.60
2022-08-06T12:19:15.966Z,27.64
2022-08-06T12:22:20.787Z,27.70
2022-08-06T12:25:36.590Z,27.63
2022-08-06T12:28:39.135Z,28.55
2022-08-06T12:31:48.644Z,28.66
2022-08-06T12:34:59.503Z,29.65
2022-08-06T12:38:02.178Z,30.08
2022-08-06T12:41:09.729Z,31.13
2022-08-06T12:44:14.879Z,30.98
2022-08-06T12:47:17.451Z,30.35
2022-08-06T12:50:42.647Z,27.37
2022-08-06T12:53:56.767Z,25.91
2022-08-06T12:57:06.117Z,25.18
2022-08-06T13:00:14.707Z,24.71
2022-08-06T13:03:19.376Z,24.14
2022-08-06T13:06:31.885Z,24.16
2022-08-06T13:09:51.037Z,24.91
2022-08-06T13:14:14.638Z,26.20
2022-08-06T13:16:38.338Z,28.26
2022-08-06T13:19:52.744Z,27.09
2022-08-06T13:22:55.640Z,25.45
2022-08-06T13:26:10.629Z,25.73
2022-08-06T13:30:34.195Z,28.22
2022-08-06T13:32:44.642Z,29.35
2022-08-06T13:35:53.991Z,28.39
2022-08-06T13:39:05.227Z,28.46
2022-08-06T13:42:15.378Z,27.06
2022-08-06T13:45:56.411Z,25.29
2022-08-06T13:48:52.397Z,24.07
2022-08-06T13:51:55.569Z,23.57
2022-08-06T13:54:59.115Z,23.86
2022-08-06T13:58:01.981Z,24.09
2022-08-06T14:01:04.815Z,24.48
2022-08-06T14:04:09.929Z,25.46
2022-08-06T14:07:14.518Z,25.54
2022-08-06T14:10:18.872Z,24.88
2022-08-06T14:13:33.331Z,24.20
2022-08-06T14:16:35.644Z,23.80
2022-08-06T14:20:14.104Z,23.80
2022-08-06T14:23:04.169Z,23.76
2022-08-06T14:26:12.892Z,23.74
2022-08-06T14:30:25.760Z,24.09
2022-08-06T14:32:37.621Z,24.09
2022-08-06T14:35:50.383Z,24.07
2022-08-06T14:38:54.820Z,23.65
2022-08-06T14:42:15.599Z,23.65
2022-08-06T14:45:21.791Z,23.69
2022-08-06T14:48:31.319Z,23.70
2022-08-06T14:51:37.638Z,23.93
2022-08-06T14:55:07.496Z,23.79
2022-08-06T14:58:11.221Z,23.66
2022-08-06T15:01:15.257Z,23.26
2022-08-06T15:04:24.065Z,23.29
2022-08-06T15:07:42.033Z,23.32
2022-08-06T15:10:44.804Z,22.87
2022-08-06T15:13:52.002Z,22.64
2022-08-06T15:17:01.966Z,22.69
2022-08-06T15:20:18.370Z,22.13
2022-08-06T15:23:30.677Z,21.92
2022-08-06T15:26:49.417Z,21.88
2022-08-06T15:29:52.224Z,21.66
2022-08-06T15:32:57.050Z,21.50
2022-08-06T15:36:00.246Z,21.52
2022-08-06T15:39:09.438Z,21.48
2022-08-06T15:42:12.367Z,21.45
2022-08-06T15:45:51.497Z,21.39
2022-08-06T15:48:47.476Z,21.37
2022-08-06T15:52:01.581Z,21.24
2022-08-06T15:55:16.056Z,21.12
2022-08-06T15:58:28.852Z,21.17
2022-08-06T16:01:52.616Z,21.01
2022-08-06T16:04:55.759Z,20.88
2022-08-06T16:07:57.900Z,20.81
2022-08-06T16:11:00.588Z,20.80
2022-08-06T16:14:03.513Z,20.74
2022-08-06T16:17:10.052Z,20.67
2022-08-06T16:20:20.827Z,20.90
2022-08-06T16:23:55.629Z,21.14
2022-08-06T16:26:53.053Z,21.22
2022-08-06T16:29:59.973Z,21.37
2022-08-06T16:33:03.001Z,21.42
2022-08-06T16:36:05.962Z,21.65
2022-08-06T16:39:12.462Z,21.72
2022-08-06T16:42:15.274Z,21.38
2022-08-06T16:45:19.227Z,21.12
2022-08-06T16:48:27.145Z,21.14
2022-08-06T16:52:44.225Z,21.08
2022-08-06T16:54:53.504Z,20.97
2022-08-06T16:57:57.521Z,20.90
2022-08-06T17:02:13.957Z,20.71
2022-08-06T17:04:32.532Z,20.58
2022-08-06T17:07:40.253Z,20.53
2022-08-06T17:10:45.944Z,20.39
2022-08-06T17:14:02.557Z,20.32
2022-08-06T17:17:07.218Z,20.23
2022-08-06T17:20:14.570Z,20.13
2022-08-06T17:23:19.630Z,20.06
2022-08-06T17:26:34.796Z,19.96
2022-08-06T17:33:01.099Z,19.82
2022-08-06T17:36:29.632Z,19.78
2022-08-06T17:39:39.582Z,19.69
2022-08-06T17:42:42.300Z,19.50
2022-08-06T17:45:52.646Z,19.51
2022-08-06T17:49:07.595Z,19.44
2022-08-06T17:52:10.387Z,19.35
2022-08-06T17:55:13.634Z,19.31
2022-08-06T17:58:38.027Z,19.25
2022-08-06T18:01:44.113Z,19.15
2022-08-06T18:04:47.408Z,19.08
2022-08-06T18:08:11.303Z,19.04
2022-08-06T18:11:13.901Z,19.00
2022-08-06T18:14:31.942Z,18.90
2022-08-06T18:17:47.615Z,18.89
2022-08-06T18:20:57.429Z,18.74
2022-08-06T18:24:25.221Z,18.63
2022-08-06T18:27:54.883Z,18.52
2022-08-06T18:30:52.009Z,18.42
2022-08-06T18:33:54.403Z,18.35
2022-08-06T18:36:57.476Z,18.26
2022-08-06T18:40:40.547Z,18.16
2022-08-06T18:43:55.361Z,18.47
2022-08-06T18:47:03.559Z,18.18
2022-08-06T18:50:09.192Z,17.94
2022-08-06T18:53:11.602Z,17.84
2022-08-06T18:56:16.698Z,17.73
2022-08-06T18:59:23.158Z,17.65
2022-08-06T19:02:33.937Z,17.50
2022-08-06T19:05:40.346Z,17.43
2022-08-06T19:08:47.275Z,17.33
2022-08-06T19:11:51.609Z,17.23
2022-08-06T19:14:54.529Z,17.14
2022-08-06T19:18:13.421Z,17.03
2022-08-06T19:21:19.373Z,16.97
2022-08-06T19:24:35.864Z,16.86
2022-08-06T19:28:07.470Z,16.77
2022-08-06T19:31:06.234Z,16.79
2022-08-06T19:34:14.378Z,16.75
2022-08-06T19:37:33.134Z,16.65
2022-08-06T19:40:52.911Z,16.70
2022-08-06T19:44:25.267Z,16.66
2022-08-06T19:47:21.667Z,16.55
2022-08-06T19:50:28.232Z,16.51
2022-08-06T19:53:31.383Z,16.45
2022-08-06T19:56:34.947Z,16.35
2022-08-06T20:00:52.184Z,16.33
2022-08-06T20:03:00.803Z,16.28
2022-08-06T20:06:21.208Z,16.21
2022-08-06T20:10:00.234Z,16.17
2022-08-06T20:12:51.851Z,16.07
2022-08-06T20:15:55.310Z,16.09
2022-08-06T20:18:58.816Z,16.09
2022-08-06T20:22:01.658Z,16.02
2022-08-06T20:25:17.935Z,15.90
2022-08-06T20:29:08.113Z,15.91
2022-08-06T20:31:55.389Z,15.85
2022-08-06T20:34:58.243Z,15.74
2022-08-06T20:38:02.937Z,15.75
2022-08-06T20:41:58.921Z,15.75
2022-08-06T20:44:30.191Z,15.68
2022-08-06T20:47:56.984Z,15.66
2022-08-06T20:50:55.456Z,15.60
2022-08-06T20:54:01.939Z,15.57
2022-08-06T20:57:21.187Z,15.56
2022-08-06T21:00:28.205Z,15.51
2022-08-06T21:05:15.726Z,15.43
2022-08-06T21:06:54.111Z,15.46
2022-08-06T21:09:56.817Z,15.46
2022-08-06T21:13:01.999Z,15.40
2022-08-06T21:16:13.907Z,15.47
2022-08-06T21:19:17.237Z,15.44
2022-08-06T21:22:21.417Z,15.44
2022-08-06T21:25:42.415Z,15.39
2022-08-06T21:28:52.435Z,15.36
2022-08-06T21:31:58.914Z,15.32
2022-08-06T21:35:01.847Z,15.32
2022-08-06T21:38:07.087Z,15.34
2022-08-06T21:41:54.388Z,15.30
2022-08-06T21:44:51.802Z,15.26
2022-08-06T21:47:53.975Z,15.22
2022-08-06T21:50:59.651Z,15.16
2022-08-06T21:54:03.740Z,15.12
2022-08-06T21:57:12.378Z,15.07
2022-08-06T22:00:41.594Z,15.09
2022-08-06T22:04:35.703Z,15.06
2022-08-06T22:07:05.955Z,15.06
2022-08-06T22:10:08.862Z,14.95
2022-08-06T22:13:16.263Z,14.86
2022-08-06T22:16:32.996Z,14.79
2022-08-06T22:19:39.349Z,14.82
2022-08-06T22:22:45.404Z,14.82
2022-08-06T22:25:54.940Z,14.81
2022-08-06T22:28:58.622Z,14.78
2022-08-06T22:32:04.656Z,14.72
2022-08-06T22:35:09.627Z,14.71
2022-08-06T22:38:16.270Z,14.65
2022-08-06T22:41:42.404Z,14.65
2022-08-06T22:45:48.253Z,14.65
2022-08-06T22:48:08.002Z,14.62
2022-08-06T22:51:11.848Z,14.58
2022-08-06T22:54:28.653Z,14.52
2022-08-06T22:58:04.255Z,14.48
2022-08-06T23:01:23.376Z,14.48
2022-08-06T23:04:29.237Z,14.52
2022-08-06T23:07:53.456Z,14.58
2022-08-06T23:10:53.723Z,14.51
2022-08-06T23:13:56.046Z,14.54
2022-08-06T23:16:59.519Z,14.52
2022-08-06T23:20:02.417Z,14.48
2022-08-06T23:23:04.666Z,14.52
2022-08-06T23:26:07.071Z,14.61
2022-08-06T23:29:10.319Z,14.58
2022-08-06T23:32:13.678Z,14.52
2022-08-06T23:35:35.302Z,14.49
2022-08-06T23:38:39.838Z,14.40
2022-08-06T23:42:00.612Z,14.31
2022-08-06T23:45:04.992Z,14.27
2022-08-06T23:48:07.196Z,14.22
2022-08-06T23:51:15.145Z,14.18
2022-08-06T23:54:37.133Z,14.16
2022-08-06T23:57:57.069Z,14.14
